createdAt,value
2018-06-16T00:02:25.323Z,8.50
2018-06-16T00:06:29.071Z,7.10
2018-06-16T00:10:32.769Z,8.03
2018-06-16T00:14:36.444Z,7.47
2018-06-16T00:18:40.250Z,7.20
2018-06-16T00:22:43.892Z,8.60
2018-06-16T00:26:47.559Z,8.43
2018-06-16T00:30:51.188Z,7.87
2018-06-16T00:34:54.894Z,8.10
2018-06-16T00:38:58.569Z,8.17
2018-06-16T00:43:02.223Z,8.20
2018-06-16T00:47:06.336Z,7.70
2018-06-16T00:51:10.210Z,7.67
2018-06-16T00:55:13.871Z,8.20
2018-06-16T00:59:17.523Z,7.57
2018-06-16T01:03:21.177Z,7.30
2018-06-16T01:07:24.824Z,7.73
2018-06-16T01:11:28.524Z,7.40
2018-06-16T01:15:32.177Z,7.23
2018-06-16T01:19:35.832Z,8.23
2018-06-16T01:23:39.570Z,7.73
2018-06-16T01:27:43.200Z,8.17
2018-06-16T01:31:46.851Z,7.27
2018-06-16T01:35:50.508Z,8.43
2018-06-16T01:39:54.185Z,7.30
2018-06-16T01:43:57.835Z,8.07
2018-06-16T01:48:01.459Z,7.93
2018-06-16T01:52:05.189Z,9.17
2018-06-16T01:56:08.905Z,9.33
2018-06-16T02:00:12.554Z,7.47
2018-06-16T02:04:16.208Z,8.00
2018-06-16T02:08:19.826Z,8.03
2018-06-16T02:12:23.548Z,6.53
2018-06-16T02:16:27.260Z,8.40
2018-06-16T02:20:30.920Z,8.00
2018-06-16T02:24:34.645Z,8.40
2018-06-16T02:28:38.259Z,8.80
2018-06-16T02:32:41.900Z,8.13
2018-06-16T02:36:45.616Z,8.47
2018-06-16T02:40:49.272Z,7.80
2018-06-16T02:44:52.937Z,8.10
2018-06-16T02:48:56.563Z,7.83
2018-06-16T02:53:00.237Z,8.07
2018-06-16T02:57:04.084Z,8.73
2018-06-16T03:01:07.731Z,8.30
2018-06-16T03:05:11.398Z,7.83
2018-06-16T03:09:15.040Z,8.17
2018-06-16T03:13:18.696Z,8.10
2018-06-16T03:17:22.371Z,8.57
2018-06-16T03:21:26.028Z,7.73
2018-06-16T03:25:29.668Z,8.27
2018-06-16T03:29:33.333Z,8.53
2018-06-16T03:33:36.952Z,9.37
2018-06-16T03:37:40.604Z,7.90
2018-06-16T03:41:44.287Z,8.77
2018-06-16T03:45:47.939Z,8.53
2018-06-16T03:49:51.655Z,8.37
2018-06-16T03:53:55.283Z,8.73
2018-06-16T03:57:58.964Z,7.80
2018-06-16T04:02:02.612Z,8.93
2018-06-16T04:06:06.306Z,8.40
2018-06-16T04:10:09.695Z,8.57
2018-06-16T04:14:13.319Z,8.00
2018-06-16T04:18:16.968Z,8.03
2018-06-16T04:22:21.308Z,8.30
2018-06-16T04:26:24.964Z,8.70
2018-06-16T04:30:28.600Z,7.90
2018-06-16T04:34:32.617Z,7.93
2018-06-16T04:38:36.277Z,7.43
2018-06-16T04:42:39.927Z,7.13
2018-06-16T04:46:43.589Z,7.40
2018-06-16T04:50:47.227Z,6.33
2018-06-16T04:54:50.848Z,6.70
2018-06-16T04:58:54.496Z,5.77
2018-06-16T05:02:58.169Z,5.03
2018-06-16T05:07:01.822Z,4.93
2018-06-16T05:11:05.560Z,4.87
2018-06-16T05:15:09.368Z,5.00
2018-06-16T05:19:13.023Z,4.90
2018-06-16T05:23:16.694Z,5.20
2018-06-16T05:27:20.528Z,5.10
2018-06-16T05:31:24.191Z,4.67
2018-06-16T05:35:27.816Z,4.63
2018-06-16T05:39:31.569Z,4.20
2018-06-16T05:43:35.285Z,4.40
2018-06-16T05:47:38.945Z,4.30
2018-06-16T05:51:42.592Z,4.80
2018-06-16T05:55:46.201Z,4.40
2018-06-16T05:59:50.029Z,4.10
2018-06-16T06:03:53.687Z,3.90
2018-06-16T06:07:57.336Z,4.10
2018-06-16T06:12:01.012Z,3.90
2018-06-16T06:16:04.672Z,4.37
2018-06-16T06:20:08.371Z,4.63
2018-06-16T06:24:12.012Z,4.40
2018-06-16T06:28:15.663Z,4.17
2018-06-16T06:32:19.310Z,4.57
2018-06-16T06:36:22.937Z,3.50
2018-06-16T06:40:26.591Z,4.00
2018-06-16T06:44:30.305Z,4.43
2018-06-16T06:48:33.960Z,4.67
2018-06-16T06:52:37.616Z,4.30
2018-06-16T06:56:41.393Z,3.70
2018-06-16T07:04:52.073Z,3.97
2018-06-16T07:08:55.717Z,4.23
2018-06-16T07:12:59.404Z,4.43
2018-06-16T07:17:03.040Z,4.37
2018-06-16T07:21:06.700Z,4.30
2018-06-16T07:25:10.372Z,4.00
2018-06-16T07:29:14.166Z,3.67
2018-06-16T07:33:17.773Z,4.63
2018-06-16T07:37:21.426Z,4.13
2018-06-16T07:41:25.171Z,3.67
2018-06-16T07:45:28.814Z,4.07
2018-06-16T07:49:32.477Z,3.97
2018-06-16T07:53:36.167Z,4.13
2018-06-16T07:57:39.782Z,4.33
2018-06-16T08:01:43.468Z,3.50
2018-06-16T08:05:47.157Z,4.20
2018-06-16T08:09:50.840Z,3.97
2018-06-16T08:13:54.477Z,4.40
2018-06-16T08:17:58.143Z,4.00
2018-06-16T08:22:01.798Z,4.03
2018-06-16T08:26:05.537Z,4.23
2018-06-16T08:30:09.198Z,3.53
2018-06-16T08:34:12.835Z,4.10
2018-06-16T08:38:16.498Z,3.77
2018-06-16T08:42:20.161Z,4.07
2018-06-16T08:46:23.830Z,4.20
2018-06-16T08:50:27.479Z,4.17
2018-06-16T08:54:31.100Z,3.70
2018-06-16T08:58:34.743Z,3.70
2018-06-16T09:02:38.389Z,3.70
2018-06-16T09:06:42.079Z,4.73
2018-06-16T09:10:46.344Z,3.90
2018-06-16T09:14:49.948Z,3.97
2018-06-16T09:18:53.648Z,3.93
2018-06-16T09:22:57.366Z,4.47
2018-06-16T09:27:01.013Z,3.90
2018-06-16T09:31:04.657Z,3.47
2018-06-16T09:35:08.292Z,3.77
2018-06-16T09:39:12.489Z,3.93
2018-06-16T09:43:16.144Z,4.60
2018-06-16T09:47:19.775Z,3.63
2018-06-16T09:51:23.419Z,3.57
2018-06-16T09:55:27.045Z,4.30
2018-06-16T09:59:30.782Z,5.13
2018-06-16T10:03:34.488Z,4.33
2018-06-16T10:07:38.124Z,4.07
2018-06-16T10:11:41.840Z,3.50
2018-06-16T10:15:45.445Z,3.40
2018-06-16T10:19:49.121Z,3.60
2018-06-16T10:23:52.768Z,3.13
2018-06-16T10:27:56.424Z,3.57
2018-06-16T10:32:00.046Z,3.33
2018-06-16T10:36:03.731Z,3.27
2018-06-16T10:40:07.171Z,3.10
2018-06-16T10:44:10.829Z,3.20
2018-06-16T10:48:14.472Z,2.97
2018-06-16T10:52:18.089Z,2.93
2018-06-16T10:56:21.735Z,3.03
2018-06-16T11:00:25.436Z,3.63
2018-06-16T11:04:29.393Z,3.57
2018-06-16T11:08:33.063Z,3.33
2018-06-16T11:12:36.708Z,3.03
2018-06-16T11:16:40.348Z,3.30
2018-06-16T11:20:44.002Z,3.20
2018-06-16T11:24:47.796Z,3.10
2018-06-16T11:28:51.433Z,2.20
2018-06-16T11:32:55.052Z,2.30
2018-06-16T11:36:58.724Z,2.53
2018-06-16T11:41:02.378Z,2.57
2018-06-16T11:45:06.579Z,2.37
2018-06-16T11:49:10.221Z,2.60
2018-06-16T11:53:13.937Z,2.40
2018-06-16T11:57:17.757Z,2.83
2018-06-16T12:01:21.408Z,3.10
2018-06-16T12:05:25.075Z,2.83
2018-06-16T12:09:28.747Z,2.67
2018-06-16T12:13:32.353Z,2.90
2018-06-16T12:17:36.027Z,3.27
2018-06-16T12:21:39.735Z,2.70
2018-06-16T12:25:43.380Z,3.07
2018-06-16T12:29:47.169Z,4.00
2018-06-16T12:33:50.768Z,4.43
2018-06-16T12:37:54.440Z,4.00
2018-06-16T12:41:58.395Z,4.17
2018-06-16T12:46:02.113Z,4.07
2018-06-16T12:50:05.774Z,3.17
2018-06-16T12:54:09.427Z,2.60
2018-06-16T12:58:13.072Z,2.47
2018-06-16T13:02:16.757Z,3.30
2018-06-16T13:06:20.408Z,2.90
2018-06-16T13:10:24.141Z,2.20
2018-06-16T13:14:27.773Z,2.13
2018-06-16T13:18:31.445Z,2.33
2018-06-16T13:22:35.162Z,2.50
2018-06-16T13:26:38.590Z,1.80
2018-06-16T13:30:42.244Z,2.73
2018-06-16T13:34:45.950Z,2.90
2018-06-16T13:38:49.694Z,2.80
2018-06-16T13:42:53.332Z,2.80
2018-06-16T13:46:57.112Z,2.63
2018-06-16T13:51:00.795Z,2.37
2018-06-16T13:55:04.662Z,2.30
2018-06-16T13:59:08.336Z,1.87
2018-06-16T14:03:11.997Z,2.33
2018-06-16T14:07:15.665Z,2.47
2018-06-16T14:11:19.358Z,1.90
2018-06-16T14:15:23.016Z,2.10
2018-06-16T14:19:26.672Z,1.67
2018-06-16T14:23:30.323Z,2.47
2018-06-16T14:27:34.136Z,2.43
2018-06-16T14:31:37.831Z,2.57
2018-06-16T14:35:41.504Z,2.30
2018-06-16T14:39:45.308Z,1.70
2018-06-16T14:43:48.981Z,1.93
2018-06-16T14:47:52.653Z,2.10
2018-06-16T14:51:56.419Z,1.87
2018-06-16T14:56:00.145Z,1.73
2018-06-16T15:00:03.861Z,1.80
2018-06-16T15:04:07.721Z,1.77
2018-06-16T15:08:11.504Z,2.30
2018-06-16T15:12:15.187Z,2.07
2018-06-16T15:16:18.900Z,1.83
2018-06-16T15:20:22.504Z,2.13
2018-06-16T15:24:26.157Z,1.87
2018-06-16T15:28:29.829Z,1.97
2018-06-16T15:32:33.533Z,2.83
2018-06-16T15:36:37.179Z,2.40
2018-06-16T15:40:40.787Z,2.07
2018-06-16T15:44:44.477Z,2.10
2018-06-16T15:48:48.130Z,2.27
2018-06-16T15:52:51.892Z,2.30
2018-06-16T15:56:55.656Z,2.13
2018-06-16T16:00:59.383Z,2.00
2018-06-16T16:05:03.094Z,2.37
2018-06-16T16:09:07.402Z,2.30
2018-06-16T16:13:11.124Z,2.43
2018-06-16T16:17:14.797Z,2.17
2018-06-16T16:21:18.439Z,2.30
2018-06-16T16:25:22.143Z,2.00
2018-06-16T16:29:25.817Z,2.07
2018-06-16T16:33:29.469Z,1.87
2018-06-16T16:37:33.125Z,1.93
2018-06-16T16:41:36.995Z,1.90
2018-06-16T16:45:40.663Z,1.80
2018-06-16T16:49:44.328Z,1.80
2018-06-16T16:53:48.017Z,1.87
2018-06-16T16:57:51.681Z,2.23
2018-06-16T17:01:55.308Z,2.10
2018-06-16T17:05:59.056Z,1.93
2018-06-16T17:10:02.892Z,2.20
2018-06-16T17:14:06.638Z,2.10
2018-06-16T17:18:10.288Z,2.13
2018-06-16T17:22:13.932Z,1.93
2018-06-16T17:26:17.611Z,2.50
2018-06-16T17:30:21.301Z,1.93
2018-06-16T17:34:24.956Z,2.23
2018-06-16T17:38:28.628Z,1.97
2018-06-16T17:42:32.252Z,1.90
2018-06-16T17:46:35.935Z,1.90
2018-06-16T17:50:39.605Z,2.00
2018-06-16T17:54:43.289Z,2.20
2018-06-16T17:58:46.928Z,2.37
2018-06-16T18:02:50.554Z,1.90
2018-06-16T18:06:54.227Z,2.67
2018-06-16T18:10:57.923Z,2.27
2018-06-16T18:15:01.673Z,2.10
2018-06-16T18:19:09.160Z,2.20
2018-06-16T18:23:12.829Z,2.63
2018-06-16T18:27:16.495Z,16.83
2018-06-16T18:31:20.221Z,2.40
2018-06-16T18:35:24.758Z,2.43
2018-06-16T18:39:28.823Z,2.30
2018-06-16T18:43:32.599Z,2.23
2018-06-16T18:47:36.553Z,3.43
2018-06-16T18:51:40.410Z,2.60
2018-06-16T18:55:44.088Z,3.20
2018-06-16T18:59:47.752Z,3.20
2018-06-16T19:03:51.387Z,2.63
2018-06-16T19:07:55.148Z,3.00
2018-06-16T19:11:58.927Z,2.73
2018-06-16T19:16:02.597Z,2.67
2018-06-16T19:20:06.293Z,3.20
2018-06-16T19:24:09.908Z,2.90
2018-06-16T19:28:13.574Z,3.23
2018-06-16T19:32:17.233Z,3.43
2018-06-16T19:36:20.880Z,4.07
2018-06-16T19:40:24.525Z,2.60
2018-06-16T19:44:28.237Z,2.47
2018-06-16T19:48:31.890Z,2.43
2018-06-16T19:52:35.620Z,3.10
2018-06-16T19:56:39.265Z,2.57
2018-06-16T20:00:42.914Z,3.10
2018-06-16T20:04:46.529Z,3.53
2018-06-16T20:08:50.198Z,3.00
2018-06-16T20:12:53.895Z,3.00
2018-06-16T20:16:57.565Z,2.83
2018-06-16T20:21:04.259Z,3.30
2018-06-16T20:25:08.076Z,2.77
2018-06-16T20:29:11.736Z,3.13
2018-06-16T20:33:15.396Z,3.60
2018-06-16T20:37:19.034Z,4.20
2018-06-16T20:41:22.698Z,5.53
2018-06-16T20:45:26.315Z,4.33
2018-06-16T20:49:30.013Z,5.00
2018-06-16T20:53:34.027Z,4.80
2018-06-16T20:57:37.791Z,5.50
2018-06-16T21:01:41.441Z,4.50
2018-06-16T21:05:45.040Z,5.23
2018-06-16T21:09:48.759Z,4.83
2018-06-16T21:13:52.061Z,7.60
2018-06-16T21:17:55.742Z,4.77
2018-06-16T21:21:59.391Z,4.83
2018-06-16T21:26:03.040Z,5.33
2018-06-16T21:30:06.829Z,5.10
2018-06-16T21:34:10.462Z,4.77
2018-06-16T21:38:14.143Z,4.80
2018-06-16T21:42:17.791Z,4.77
2018-06-16T21:46:21.444Z,5.20
2018-06-16T21:50:25.048Z,4.80
2018-06-16T21:54:28.700Z,5.27
2018-06-16T21:58:32.351Z,4.93
2018-06-16T22:02:35.991Z,5.43
2018-06-16T22:06:39.644Z,5.07
2018-06-16T22:10:43.280Z,5.10
2018-06-16T22:14:46.941Z,4.93
2018-06-16T22:18:50.741Z,5.17
2018-06-16T22:22:54.431Z,5.57
2018-06-16T22:26:58.078Z,5.10
2018-06-16T22:31:01.699Z,5.70
2018-06-16T22:35:05.436Z,5.23
2018-06-16T22:39:11.388Z,4.80
2018-06-16T22:43:15.071Z,6.03
2018-06-16T22:47:18.708Z,5.23
2018-06-16T22:51:22.431Z,5.10
2018-06-16T22:55:26.064Z,5.93
2018-06-16T22:59:29.700Z,5.27
2018-06-16T23:03:33.372Z,6.30
2018-06-16T23:07:37.110Z,5.60
2018-06-16T23:11:40.895Z,6.30
2018-06-16T23:15:44.521Z,6.57
2018-06-16T23:19:48.224Z,6.17
2018-06-16T23:23:51.861Z,6.27
2018-06-16T23:27:55.528Z,6.40
2018-06-16T23:31:59.140Z,6.00
2018-06-16T23:36:02.800Z,5.87
2018-06-16T23:40:06.581Z,6.17
2018-06-16T23:44:10.271Z,5.50
2018-06-16T23:48:13.912Z,5.30
2018-06-16T23:52:17.523Z,6.50
2018-06-16T23:56:21.208Z,5.60
